Time;durP1;ratioP1;P1;durP2;ratioP2;P2;SDS_P1;SDS_P2;PMS_P1;PMS_P2;Temp;Humidity;BMP_temperature;BMP_pressure;BME280_temperature;BME280_humidity;BME280_pressure;Samples;Min_cycle;Max_cycle;Signal;HPM_P1;HPM_P2
2021/09/30 00:00:41;;;;;;;19.80;16.30;;;;;;;7.31;85.91;101417.28;1658200;85;21055;-73
2021/09/30 00:03:10;;;;;;;24.37;17.67;;;;;;;7.24;85.86;101419.87;1667764;85;20928;-74
2021/09/30 00:05:38;;;;;;;25.25;17.90;;;;;;;7.20;85.92;101417.24;1657347;85;20987;-72
2021/09/30 00:08:06;;;;;;;28.12;17.48;;;;;;;7.17;86.02;101421.64;1671216;85;20989;-74
2021/09/30 00:10:33;;;;;;;29.25;18.73;;;;;;;7.18;86.19;101423.30;1661453;85;22008;-74
2021/09/30 00:13:19;;;;;;;25.88;18.02;;;;;;;7.23;86.26;101422.75;1659421;85;21011;-73
2021/09/30 00:16:03;;;;;;;22.48;15.53;;;;;;;7.30;86.33;101423.14;1661851;85;21023;-72
2021/09/30 00:34:42;;;;;;;20.08;14.45;;;;;;;7.14;86.42;101415.84;1631239;87;21551;-79
2021/09/30 00:40:11;;;;;;;21.33;16.65;;;;;;;7.12;86.68;101416.52;1631245;88;21030;-79
2021/09/30 00:45:28;;;;;;;23.67;16.93;;;;;;;7.09;86.97;101412.38;1649325;87;21006;-82
2021/09/30 00:47:49;;;;;;;28.05;19.25;;;;;;;7.12;87.21;101413.34;1651557;86;20984;-82
2021/09/30 00:53:33;;;;;;;26.55;18.40;;;;;;;7.12;87.43;101413.84;1670094;85;20999;-75
2021/09/30 01:25:28;;;;;;;23.27;14.83;;;;;;;7.48;86.94;101413.41;1669548;85;21066;-80
2021/09/30 01:29:07;;;;;;;25.10;14.68;;;;;;;7.46;86.55;101416.77;1648456;86;21054;-79
2021/09/30 02:19:41;;;;;;;20.00;13.38;;;;;;;7.92;82.45;101408.41;1656609;85;20968;-76
2021/09/30 02:22:17;;;;;;;20.85;16.80;;;;;;;7.87;82.27;101408.48;1654640;85;21018;-76
2021/09/30 02:59:59;;;;;;;21.75;13.38;;;;;;;7.58;81.64;101421.94;1650503;87;20997;-77
2021/09/30 03:02:27;;;;;;;24.20;15.48;;;;;;;7.59;81.56;101420.09;1632509;86;21017;-76
2021/09/30 03:04:54;;;;;;;30.55;16.77;;;;;;;7.58;81.43;101419.27;1633195;87;21557;-77
2021/09/30 03:07:22;;;;;;;21.97;13.75;;;;;;;7.56;81.36;101418.64;1600698;85;21061;-77
2021/09/30 03:09:48;;;;;;;21.85;13.20;;;;;;;7.54;81.29;101423.34;1678208;85;20997;-75
2021/09/30 03:12:27;;;;;;;20.90;16.25;;;;;;;7.49;81.30;101422.23;1678226;85;20950;-77
2021/09/30 03:15:41;;;;;;;24.35;15.93;;;;;;;7.42;81.31;101423.02;1639868;86;21023;-77
2021/09/30 03:17:21;;;;;;;32.13;19.92;;;;;;;7.34;81.26;101423.09;1632015;87;21043;-77
2021/09/30 03:19:52;;;;;;;34.70;21.05;;;;;;;7.25;81.37;101422.87;1632957;87;22140;-77
2021/09/30 03:22:17;;;;;;;24.90;19.12;;;;;;;7.20;81.71;101419.08;1641977;85;21032;-70
2021/09/30 03:24:48;;;;;;;26.27;19.27;;;;;;;7.14;81.83;101422.52;1650360;87;21115;-74
2021/09/30 03:27:14;;;;;;;21.68;17.45;;;;;;;7.13;82.15;101419.02;1641973;86;21504;-75
2021/09/30 03:29:41;;;;;;;31.75;20.17;;;;;;;7.18;82.31;101417.95;1640695;86;21107;-75
2021/09/30 03:32:08;;;;;;;36.20;22.27;;;;;;;7.15;82.18;101420.98;1658199;86;21083;-75
2021/09/30 03:34:49;;;;;;;33.15;21.62;;;;;;;7.11;82.30;101421.53;1658000;86;21007;-76
2021/09/30 03:37:16;;;;;;;33.98;22.20;;;;;;;7.03;82.28;101417.13;1660743;85;21074;-73
2021/09/30 03:39:43;;;;;;;37.60;21.10;;;;;;;6.97;82.57;101428.55;1627432;86;21067;-75
2021/09/30 03:42:09;;;;;;;54.48;21.35;;;;;;;6.94;82.65;101424.41;1670360;85;21047;-73
2021/09/30 03:44:38;;;;;;;33.90;18.65;;;;;;;6.91;82.77;101423.92;1676271;83;21927;-75
2021/09/30 03:47:06;;;;;;;33.08;19.37;;;;;;;6.89;82.88;101424.13;1646174;85;20959;-75
2021/09/30 03:49:35;;;;;;;45.43;21.42;;;;;;;6.95;83.21;101423.91;1660537;84;21049;-73
2021/09/30 03:52:11;;;;;;;68.25;39.98;;;;;;;6.98;83.08;101424.86;1655100;85;21082;-74
2021/09/30 03:54:40;;;;;;;45.88;25.37;;;;;;;7.05;83.04;101419.63;1635624;87;21067;-74
2021/09/30 03:59:31;;;;;;;37.65;19.52;;;;;;;7.10;82.65;101418.56;1646146;86;21043;-74
2021/09/30 04:02:03;;;;;;;30.37;16.60;;;;;;;7.05;82.48;101415.07;1650487;85;21032;-76
2021/09/30 04:04:35;;;;;;;22.07;14.68;;;;;;;7.03;82.50;101424.31;1661052;86;21047;-73
2021/09/30 04:07:05;;;;;;;36.08;16.95;;;;;;;7.01;82.56;101417.80;1645930;86;21002;-74
2021/09/30 04:09:36;;;;;;;26.52;15.13;;;;;;;6.98;82.53;101423.53;1663537;86;21250;-75
2021/09/30 04:12:09;;;;;;;40.70;16.17;;;;;;;6.98;82.65;101423.02;1627993;87;21160;-74
2021/09/30 04:14:36;;;;;;;;;;;;;;;7.00;82.69;101426.33;1640435;87;21534;-73
2021/09/30 04:17:04;;;;;;;35.23;13.55;;;;;;;7.06;82.72;101418.58;1654794;84;20155;-73
2021/09/30 04:19:32;;;;;;;20.37;14.93;;;;;;;7.03;82.31;101421.64;1647198;86;21048;-73
2021/09/30 04:21:59;;;;;;;22.13;14.05;;;;;;;7.00;82.27;101423.66;1647274;86;21812;-73
2021/09/30 04:24:27;;;;;;;25.95;13.78;;;;;;;6.89;81.93;101418.78;1665104;84;20971;-73
2021/09/30 04:26:55;;;;;;;18.20;12.73;;;;;;;6.80;82.16;101419.88;1634901;87;21580;-72
2021/09/30 04:29:22;;;;;;;23.20;14.23;;;;;;;6.78;82.31;101420.55;1664732;84;20987;-70
2021/09/30 04:31:49;;;;;;;21.87;14.03;;;;;;;6.76;82.46;101421.77;1675488;84;21004;-71
2021/09/30 04:34:16;;;;;;;19.50;13.58;;;;;;;6.71;82.61;101422.81;1692753;84;21133;-73
2021/09/30 04:36:43;;;;;;;22.35;13.28;;;;;;;6.72;82.80;101426.63;1692927;83;21044;-72
2021/09/30 07:47:24;;;;;;;10.45;9.15;;;;;;;10.30;69.29;101497.03;1782275;78;113226;-72
2021/09/30 07:49:51;;;;;;;17.17;8.90;;;;;;;10.43;68.65;101496.53;1711017;83;21002;-72
2021/09/30 07:52:17;;;;;;;13.03;9.43;;;;;;;10.57;67.31;101505.45;1685350;83;22171;-74
2021/09/30 07:54:44;;;;;;;11.50;9.38;;;;;;;10.64;66.80;101497.39;1711713;83;21010;-73
2021/09/30 07:57:10;;;;;;;14.83;8.38;;;;;;;10.65;66.22;101501.20;1712048;82;20963;-73
2021/09/30 07:59:38;;;;;;;9.90;8.00;;;;;;;10.70;65.71;101486.61;1713949;82;20964;-74
2021/09/30 08:02:05;;;;;;;8.08;7.28;;;;;;;10.75;63.49;101497.59;1713850;82;20971;-72
2021/09/30 08:04:31;;;;;;;11.40;7.58;;;;;;;10.78;62.82;101495.02;1713791;82;21257;-73
2021/09/30 08:06:58;;;;;;;7.17;6.45;;;;;;;10.77;62.70;101497.39;1738505;82;21015;-73
2021/09/30 08:09:24;;;;;;;8.38;7.45;;;;;;;10.77;62.63;101505.47;1737273;82;20926;-72
2021/09/30 08:11:52;;;;;;;10.50;7.53;;;;;;;10.71;61.91;101496.86;1726178;81;20978;-73
2021/09/30 08:14:19;;;;;;;11.63;9.50;;;;;;;10.69;61.67;101497.09;1682325;84;21273;-74
2021/09/30 08:16:47;;;;;;;20.97;10.55;;;;;;;10.72;61.89;101506.60;1737185;82;21062;-72
2021/09/30 08:19:15;;;;;;;8.90;7.40;;;;;;;10.74;61.80;101501.85;1736380;82;21509;-73
2021/09/30 08:21:44;;;;;;;8.45;7.20;;;;;;;10.82;61.79;101501.64;1733561;82;20977;-71
2021/09/30 08:24:13;;;;;;;7.05;6.10;;;;;;;10.85;60.68;101503.39;1735526;82;21020;-72
2021/09/30 08:26:40;;;;;;;8.00;6.92;;;;;;;10.82;60.25;101501.64;1711746;83;20945;-72
2021/09/30 08:29:06;;;;;;;9.10;6.25;;;;;;;10.79;60.46;101498.03;1729444;82;23318;-72
2021/09/30 08:31:33;;;;;;;8.35;5.55;;;;;;;10.81;59.63;101508.05;1735791;82;21512;-73
2021/09/30 08:34:00;;;;;;;7.58;6.87;;;;;;;10.85;60.19;101499.86;1709349;84;21462;-74
2021/09/30 08:36:27;;;;;;;8.50;7.72;;;;;;;10.88;60.21;101503.00;1736924;81;21026;-73
2021/09/30 08:38:53;;;;;;;11.05;8.13;;;;;;;10.89;60.50;101502.45;1771554;81;21133;-73
2021/09/30 08:41:20;;;;;;;9.60;8.08;;;;;;;10.88;60.49;101505.69;1743576;81;21133;-72
2021/09/30 08:43:46;;;;;;;10.58;8.23;;;;;;;10.87;60.18;101503.19;1743675;81;20969;-73
2021/09/30 08:46:13;;;;;;;12.75;7.47;;;;;;;10.90;60.19;101501.42;1760797;80;20986;-73
2021/09/30 08:48:40;;;;;;;7.70;7.00;;;;;;;10.95;59.65;101502.97;1770081;81;20923;-72
2021/09/30 08:51:08;;;;;;;8.80;7.67;;;;;;;10.94;59.52;101493.23;1736203;82;20930;-77
2021/09/30 08:53:35;;;;;;;12.05;7.42;;;;;;;10.96;59.54;101500.59;1735945;82;21089;-72
2021/09/30 08:56:05;;;;;;;13.62;8.35;;;;;;;10.94;59.62;101502.14;1730574;82;21040;-73
2021/09/30 08:58:32;;;;;;;9.23;8.13;;;;;;;10.97;59.78;101490.66;1686326;82;21094;-72
2021/09/30 09:01:01;;;;;;;11.75;7.97;;;;;;;11.00;59.72;101491.06;1708103;82;21006;-71
2021/09/30 09:03:36;;;;;;;9.10;8.20;;;;;;;11.08;59.74;101492.19;1732474;82;21075;-72
2021/09/30 09:06:04;;;;;;;9.28;7.75;;;;;;;11.17;59.41;101492.81;1737230;81;21144;-71
2021/09/30 09:08:31;;;;;;;12.18;8.30;;;;;;;11.24;59.09;101493.63;1737239;82;21490;-72
2021/09/30 09:11:00;;;;;;;11.83;8.80;;;;;;;11.27;59.22;101491.33;1731649;82;21546;-70
2021/09/30 09:13:26;;;;;;;9.30;7.87;;;;;;;11.29;59.23;101485.22;1700828;83;21086;-70
2021/09/30 09:15:59;;;;;;;9.18;7.97;;;;;;;11.33;58.68;101486.45;1730879;82;21601;-72
2021/09/30 09:18:42;;;;;;;10.05;7.85;;;;;;;11.34;58.92;101481.37;1731467;82;22258;-71
2021/09/30 09:21:20;;;;;;;8.18;7.17;;;;;;;11.38;59.02;101481.26;1709041;82;21563;-71
2021/09/30 09:24:01;;;;;;;11.25;8.78;;;;;;;11.44;58.49;101482.80;1717867;82;21099;-70
2021/09/30 09:26:37;;;;;;;8.35;7.55;;;;;;;11.48;58.25;101475.95;1757573;81;20994;-71
2021/09/30 09:29:14;;;;;;;10.08;9.03;;;;;;;11.55;58.02;101480.30;1736129;82;21503;-72
2021/09/30 09:31:45;;;;;;;11.83;7.92;;;;;;;11.56;57.81;101479.23;1730235;83;21173;-72
2021/09/30 09:34:28;;;;;;;11.15;8.08;;;;;;;11.54;57.79;101479.15;1702858;82;21539;-75
2021/09/30 09:37:16;;;;;;;8.35;7.55;;;;;;;11.52;57.01;101481.22;1719705;81;21000;-73
2021/09/30 09:39:44;;;;;;;12.60;7.85;;;;;;;11.49;56.87;101479.78;1712566;82;21045;-76
2021/09/30 09:42:16;;;;;;;11.60;9.15;;;;;;;11.49;57.16;101485.69;1721162;82;22197;-75
2021/09/30 09:44:57;;;;;;;9.55;7.87;;;;;;;11.53;57.47;101482.36;1717232;83;21114;-74
2021/09/30 09:47:33;;;;;;;11.25;9.15;;;;;;;11.64;57.31;101479.53;1736760;82;20994;-75
2021/09/30 09:50:11;;;;;;;13.53;9.23;;;;;;;11.76;57.05;101481.88;1738913;82;21585;-76
2021/09/30 09:52:55;;;;;;;6.85;6.15;;;;;;;11.89;57.17;101481.02;1746131;81;21041;-79
2021/09/30 09:55:30;;;;;;;10.58;9.38;;;;;;;11.98;55.80;101482.42;1739212;82;21556;-82
2021/09/30 09:58:08;;;;;;;9.50;8.10;;;;;;;11.97;56.07;101476.72;1738846;82;21098;-79
2021/09/30 10:00:59;;;;;;;14.33;8.88;;;;;;;12.01;55.96;101475.24;1747036;81;21023;-80
2021/09/30 10:03:30;;;;;;;12.00;9.13;;;;;;;12.09;55.22;101474.98;1723779;81;20991;-78
2021/09/30 10:06:01;;;;;;;13.22;10.00;;;;;;;12.09;54.94;101481.20;1756109;81;21024;-79
2021/09/30 10:08:28;;;;;;;8.50;7.25;;;;;;;12.12;55.19;101478.09;1714418;82;21022;-79
2021/09/30 10:10:56;;;;;;;8.38;7.58;;;;;;;12.16;54.68;101473.09;1740118;82;21111;-79
2021/09/30 10:13:25;;;;;;;10.32;9.28;;;;;;;12.22;54.47;101466.31;1740360;82;21561;-79
2021/09/30 10:15:54;;;;;;;17.10;8.85;;;;;;;12.32;54.50;101475.28;1740057;82;20953;-82
2021/09/30 10:18:27;;;;;;;12.63;7.65;;;;;;;12.39;54.37;101469.82;1688940;83;21066;-71
2021/09/30 10:20:57;;;;;;;11.78;9.58;;;;;;;12.51;54.33;101468.92;1740370;82;20997;-71
2021/09/30 10:23:31;;;;;;;9.00;8.20;;;;;;;12.61;53.79;101467.08;1740411;82;20977;-69
2021/09/30 10:26:10;;;;;;;9.10;8.20;;;;;;;12.65;53.61;101463.72;1740539;82;21050;-68
2021/09/30 10:28:40;;;;;;;14.63;9.53;;;;;;;12.72;53.82;101462.30;1716392;82;20975;-73
2021/09/30 10:31:28;;;;;;;12.00;7.92;;;;;;;12.85;53.83;101457.33;1714981;82;21060;-69
2021/09/30 10:33:57;;;;;;;10.35;8.45;;;;;;;13.00;52.73;101451.86;1710036;82;21564;-68
2021/09/30 10:36:35;;;;;;;11.12;8.60;;;;;;;13.10;52.40;101454.88;1709457;83;21230;-68
2021/09/30 10:39:26;;;;;;;10.50;8.95;;;;;;;13.16;51.37;101451.02;1740355;82;21091;-75
2021/09/30 10:42:00;;;;;;;8.45;7.58;;;;;;;13.21;51.63;101458.76;1740235;82;21524;-78
2021/09/30 10:44:34;;;;;;;9.75;7.87;;;;;;;13.25;50.55;101446.97;1709122;82;20981;-72
2021/09/30 10:46:58;;;;;;;14.53;8.85;;;;;;;13.28;50.75;101444.66;1723754;81;21188;-76
2021/09/30 10:49:45;;;;;;;10.58;7.72;;;;;;;13.38;50.40;101440.09;1730301;82;21138;-76
2021/09/30 10:52:28;;;;;;;13.45;8.75;;;;;;;13.50;50.48;101446.38;1707141;83;21004;-70
2021/09/30 10:55:15;;;;;;;13.58;8.28;;;;;;;13.64;50.14;101439.75;1701193;84;21032;-69
2021/09/30 10:57:45;;;;;;;9.65;8.68;;;;;;;13.72;49.22;101441.31;1671626;84;21089;-75
2021/09/30 11:00:21;;;;;;;10.03;8.20;;;;;;;13.72;49.44;101446.72;1673037;85;21048;-75
2021/09/30 11:03:09;;;;;;;15.43;9.35;;;;;;;13.73;49.90;101437.03;1684418;84;21542;-73
2021/09/30 11:05:38;;;;;;;8.65;7.85;;;;;;;13.84;49.40;101438.15;1734425;82;21004;-73
2021/09/30 11:08:26;;;;;;;11.60;8.03;;;;;;;13.84;49.29;101430.03;1729468;82;21032;-73
2021/09/30 11:11:08;;;;;;;9.75;8.38;;;;;;;13.91;49.84;101430.23;1716475;82;20942;-71
2021/09/30 11:13:44;;;;;;;9.70;8.53;;;;;;;13.95;48.65;101426.56;1738378;82;21066;-77
2021/09/30 11:16:22;;;;;;;8.00;7.28;;;;;;;13.93;48.83;101426.78;1715270;82;21055;-76
2021/09/30 11:18:55;;;;;;;11.40;9.03;;;;;;;14.03;49.34;101414.58;1735675;82;20981;-75
2021/09/30 11:21:37;;;;;;;14.65;8.40;;;;;;;14.20;48.99;101415.03;1730782;83;20988;-77
2021/09/30 11:24:27;;;;;;;13.35;8.58;;;;;;;14.31;48.95;101412.06;1674348;85;21046;-77
2021/09/30 11:26:59;;;;;;;13.35;9.75;;;;;;;14.46;48.64;101417.89;1710836;82;21020;-70
2021/09/30 11:29:27;;;;;;;16.57;10.43;;;;;;;14.57;47.65;101408.97;1714192;82;21608;-69
2021/09/30 11:32:04;;;;;;;15.70;9.20;;;;;;;14.63;47.58;101421.55;1730123;83;21231;-69
2021/09/30 11:34:37;;;;;;;13.98;10.40;;;;;;;14.71;47.77;101412.27;1688528;84;21618;-69
2021/09/30 11:37:16;;;;;;;16.97;9.75;;;;;;;14.64;47.59;101405.61;1711068;82;21061;-69
2021/09/30 11:39:45;;;;;;;14.53;10.55;;;;;;;14.65;47.91;101405.91;1707242;83;20970;-70
2021/09/30 11:42:11;;;;;;;10.55;7.80;;;;;;;14.64;47.39;101405.61;1730430;83;21551;-69
2021/09/30 11:44:38;;;;;;;12.23;7.60;;;;;;;14.67;47.00;101407.04;1676381;84;21516;-70
2021/09/30 11:47:04;;;;;;;10.00;7.50;;;;;;;14.63;46.82;101402.59;1731571;82;21022;-70
2021/09/30 11:49:42;;;;;;;9.45;8.25;;;;;;;14.70;46.84;101399.78;1708335;82;21014;-71
2021/09/30 11:52:13;;;;;;;19.82;8.80;;;;;;;14.77;46.84;101394.53;1747891;81;21087;-76
2021/09/30 11:54:39;;;;;;;10.53;8.28;;;;;;;14.89;46.39;101395.06;1752337;81;21258;-78
2021/09/30 11:57:06;;;;;;;14.95;11.40;;;;;;;14.97;46.31;101389.28;1726833;81;21040;-77
2021/09/30 11:59:32;;;;;;;10.70;9.25;;;;;;;15.08;46.19;101393.88;1752932;81;20991;-75
2021/09/30 12:02:05;;;;;;;13.62;8.10;;;;;;;15.13;45.51;101395.34;1752829;81;21047;-77
2021/09/30 12:04:38;;;;;;;9.40;8.40;;;;;;;15.12;45.66;101392.33;1757962;81;20982;-74
2021/09/30 12:07:04;;;;;;;14.98;8.68;;;;;;;15.08;45.61;101387.09;1757947;81;25545;-78
2021/09/30 12:09:33;;;;;;;10.88;6.37;;;;;;;15.08;45.71;101386.56;1697847;83;21603;-71
2021/09/30 12:12:04;;;;;;;9.63;8.00;;;;;;;15.20;44.82;101383.29;1707247;82;21018;-76
2021/09/30 12:14:45;;;;;;;9.03;7.62;;;;;;;15.27;44.72;101381.28;1737185;82;20946;-74
2021/09/30 12:17:16;;;;;;;14.13;8.58;;;;;;;15.33;44.59;101378.16;1737318;82;20978;-76
2021/09/30 12:19:51;;;;;;;12.85;8.88;;;;;;;15.30;44.34;101377.81;1737302;82;21040;-74
2021/09/30 12:22:27;;;;;;;12.25;8.08;;;;;;;15.21;44.40;101371.92;1731788;82;22110;-76
2021/09/30 12:25:02;;;;;;;10.68;8.68;;;;;;;15.18;44.84;101373.77;1731740;82;21034;-76
2021/09/30 12:27:31;;;;;;;10.43;8.60;;;;;;;15.22;44.96;101363.56;1737267;81;21001;-80
2021/09/30 12:30:13;;;;;;;7.80;7.10;;;;;;;15.32;44.44;101361.59;1731132;82;21045;-74
2021/09/30 12:32:45;;;;;;;11.30;8.10;;;;;;;15.32;44.69;101360.77;1710654;81;21295;-75
2021/09/30 12:35:20;;;;;;;14.03;8.68;;;;;;;15.37;44.72;101355.45;1708986;83;20989;-78
2021/09/30 12:37:51;;;;;;;10.32;8.00;;;;;;;15.43;44.19;101356.67;1730950;82;21045;-81
2021/09/30 12:40:26;;;;;;;10.85;9.68;;;;;;;15.46;44.20;101357.53;1699276;83;21023;-83
2021/09/30 12:43:04;;;;;;;10.78;9.63;;;;;;;15.52;44.35;101353.89;1730813;82;20956;-73
2021/09/30 12:45:38;;;;;;;15.72;12.98;;;;;;;15.55;44.17;101359.36;1700528;83;21062;-75
2021/09/30 12:48:13;;;;;;;10.53;8.30;;;;;;;15.54;43.66;101357.17;1729867;82;27507;-74
2021/09/30 12:50:51;;;;;;;10.10;8.20;;;;;;;15.53;44.10;101350.12;1704031;82;21113;-73
2021/09/30 12:53:20;;;;;;;10.75;7.42;;;;;;;15.63;43.78;101351.64;1702983;83;21018;-73
2021/09/30 12:55:50;;;;;;;14.20;11.43;;;;;;;15.77;43.26;101349.48;1703674;82;21021;-78
2021/09/30 12:58:38;;;;;;;11.10;7.78;;;;;;;15.87;42.54;101340.70;1702668;84;21074;-81
2021/09/30 13:01:30;;;;;;;9.70;6.53;;;;;;;15.83;42.83;101340.34;1732591;81;20988;-73
2021/09/30 13:04:14;;;;;;;11.73;8.43;;;;;;;15.80;42.64;101334.06;1731772;82;21003;-81
2021/09/30 13:06:55;;;;;;;14.15;7.45;;;;;;;15.72;42.93;101335.00;1732282;82;20993;-78
2021/09/30 13:09:34;;;;;;;14.80;7.75;;;;;;;15.68;42.79;101334.67;1732032;82;22277;-78
2021/09/30 13:12:15;;;;;;;14.15;7.58;;;;;;;15.72;42.83;101328.22;1704521;82;21837;-76
2021/09/30 13:14:53;;;;;;;11.48;8.05;;;;;;;15.82;42.81;101325.16;1704308;82;21109;-74
2021/09/30 13:17:26;;;;;;;10.65;7.72;;;;;;;15.83;42.79;101325.95;1731867;82;21042;-75
2021/09/30 13:20:04;;;;;;;12.35;6.47;;;;;;;15.88;42.65;101316.02;1729727;82;20956;-83
2021/09/30 13:22:42;;;;;;;10.35;7.03;;;;;;;15.97;42.10;101307.76;1731958;82;21032;-79
2021/09/30 13:25:15;;;;;;;13.90;7.62;;;;;;;15.97;41.30;101310.47;1704579;82;22022;-82
2021/09/30 13:27:43;;;;;;;8.53;6.10;;;;;;;15.86;41.84;101311.39;1704815;82;23702;-73
2021/09/30 13:30:13;;;;;;;10.35;7.28;;;;;;;15.79;41.78;101311.23;1709939;82;21061;-72
2021/09/30 13:32:40;;;;;;;14.40;7.85;;;;;;;15.70;42.44;101305.39;1737506;82;20966;-71
2021/09/30 13:35:10;;;;;;;13.78;6.65;;;;;;;15.76;42.83;101306.31;1707327;82;21064;-73
2021/09/30 13:37:36;;;;;;;21.45;8.65;;;;;;;15.89;43.11;101300.56;1681988;82;21692;-71
2021/09/30 13:40:06;;;;;;;7.15;6.08;;;;;;;16.05;42.41;101301.12;1731344;82;20959;-85
2021/09/30 13:42:34;;;;;;;10.78;7.75;;;;;;;16.13;42.60;101297.98;1728500;82;21019;-81
2021/09/30 13:45:02;;;;;;;12.37;7.40;;;;;;;16.26;41.95;101294.13;1707828;82;21022;-87
2021/09/30 13:47:29;;;;;;;14.80;7.67;;;;;;;16.37;41.94;101298.63;1695616;84;21080;-73
2021/09/30 13:49:56;;;;;;;9.78;7.90;;;;;;;16.43;42.09;101288.13;1738948;82;21069;-75
2021/09/30 13:52:23;;;;;;;17.23;8.70;;;;;;;16.51;41.68;101292.59;1712444;82;21016;-75
2021/09/30 13:54:49;;;;;;;11.80;7.30;;;;;;;16.53;41.47;101295.89;1714539;82;21079;-76
2021/09/30 13:57:16;;;;;;;20.08;8.90;;;;;;;16.49;41.72;101291.22;1714810;82;20996;-73
2021/09/30 13:59:44;;;;;;;18.73;11.80;;;;;;;16.45;41.83;101286.00;1709434;83;21601;-75
2021/09/30 14:02:10;;;;;;;16.20;7.58;;;;;;;16.45;41.73;101288.16;1740168;82;21043;-76
2021/09/30 14:04:37;;;;;;;9.48;6.12;;;;;;;16.43;41.57;101281.34;1740205;82;21493;-80
2021/09/30 14:07:08;;;;;;;10.45;7.17;;;;;;;16.40;42.06;101275.85;1739611;82;21026;-78
2021/09/30 14:09:34;;;;;;;16.80;8.78;;;;;;;16.42;42.15;101282.41;1711200;82;20953;-75
2021/09/30 14:12:02;;;;;;;14.55;9.63;;;;;;;16.43;42.20;101280.80;1686282;83;21022;-77
2021/09/30 14:14:30;;;;;;;10.85;7.45;;;;;;;16.35;42.40;101275.81;1693839;84;20921;-76
2021/09/30 14:16:57;;;;;;;15.60;7.47;;;;;;;16.31;42.33;101274.63;1693575;84;21064;-73
2021/09/30 14:19:25;;;;;;;8.55;6.72;;;;;;;16.38;42.22;101273.11;1698556;83;21047;-76
2021/09/30 14:21:53;;;;;;;22.48;8.45;;;;;;;16.45;42.00;101278.64;1722629;83;21055;-74
2021/09/30 14:24:20;;;;;;;7.75;6.00;;;;;;;16.48;41.95;101273.27;1695168;83;21087;-83
2021/09/30 14:26:46;;;;;;;9.35;7.58;;;;;;;16.51;41.73;101276.83;1722533;83;21182;-80
2021/09/30 14:29:12;;;;;;;12.45;7.33;;;;;;;16.39;41.33;101275.59;1721047;82;21568;-79
2021/09/30 14:31:40;;;;;;;15.95;6.17;;;;;;;16.33;41.89;101277.94;1722661;82;21438;-80
2021/09/30 14:34:06;;;;;;;10.70;5.92;;;;;;;16.35;42.23;101277.17;1699398;82;20994;-84
2021/09/30 14:36:35;;;;;;;21.68;9.33;;;;;;;16.43;42.13;101274.02;1722729;83;21051;-75
2021/09/30 14:39:03;;;;;;;14.78;7.25;;;;;;;16.47;42.30;101274.33;1722842;83;21047;-78
2021/09/30 14:41:29;;;;;;;13.00;7.12;;;;;;;16.55;42.02;101275.25;1722735;82;21570;-72
2021/09/30 14:43:56;;;;;;;16.50;6.97;;;;;;;16.64;41.86;101273.81;1728931;81;21080;-71
2021/09/30 14:46:22;;;;;;;16.57;9.15;;;;;;;16.68;41.87;101270.87;1721064;82;22485;-71
2021/09/30 14:48:49;;;;;;;9.80;7.40;;;;;;;16.67;41.63;101271.11;1727575;82;21075;-71
2021/09/30 14:51:16;;;;;;;12.58;6.35;;;;;;;16.65;41.50;101274.59;1731014;82;21158;-71
2021/09/30 14:53:43;;;;;;;13.20;7.22;;;;;;;16.61;41.42;101270.75;1709525;82;21008;-71
2021/09/30 14:56:10;;;;;;;14.98;6.87;;;;;;;16.59;41.53;101271.55;1730313;82;21580;-71
2021/09/30 14:58:37;;;;;;;18.95;8.15;;;;;;;16.61;41.74;101270.21;1706991;83;21688;-70
2021/09/30 15:01:04;;;;;;;27.73;9.63;;;;;;;16.54;41.79;101268.20;1776870;80;21033;-70
2021/09/30 15:03:31;;;;;;;8.33;7.53;;;;;;;16.49;41.95;101275.74;1776758;80;23290;-76
2021/09/30 15:05:58;;;;;;;20.45;8.90;;;;;;;16.45;42.11;101275.13;1752708;80;20960;-86
2021/09/30 15:08:24;;;;;;;13.65;8.03;;;;;;;16.34;42.29;101267.91;1753340;80;20981;-76
2021/09/30 15:10:51;;;;;;;12.25;8.38;;;;;;;16.28;42.43;101270.25;1753086;80;21570;-75
2021/09/30 15:13:17;;;;;;;21.57;7.80;;;;;;;16.25;42.70;101270.76;1777578;80;20961;-76
2021/09/30 15:15:45;;;;;;;24.92;9.65;;;;;;;16.21;42.88;101266.90;1775897;80;20987;-73
2021/09/30 15:18:26;;;;;;;18.15;8.85;;;;;;;16.03;43.35;101272.03;1751431;80;20942;-78
2021/09/30 15:23:27;;;;;;;26.62;12.33;;;;;;;15.55;44.46;101267.14;1776124;78;21017;-80
2021/09/30 15:25:53;;;;;;;26.60;13.08;;;;;;;15.40;44.67;101262.23;1777256;80;21010;-77
2021/09/30 15:28:20;;;;;;;38.78;18.02;;;;;;;15.37;44.85;101270.03;1776079;80;21118;-81
2021/09/30 15:30:47;;;;;;;27.98;15.65;;;;;;;15.30;45.35;101270.17;1753023;80;21485;-77
2021/09/30 15:33:13;;;;;;;38.30;15.80;;;;;;;15.17;45.73;101274.53;1753102;80;21018;-79
2021/09/30 15:35:42;;;;;;;52.90;14.28;;;;;;;15.01;46.86;101270.69;1764248;80;21060;-76
2021/09/30 15:38:10;;;;;;;34.80;12.20;;;;;;;14.82;48.09;101269.20;1757363;79;21022;-74
2021/09/30 15:40:38;;;;;;;39.18;13.53;;;;;;;14.67;48.68;101270.27;1754084;80;22034;-76
2021/09/30 15:43:04;;;;;;;37.78;10.08;;;;;;;14.51;49.19;101269.09;1791236;78;21514;-69
2021/09/30 15:45:31;;;;;;;26.55;9.85;;;;;;;14.35;49.90;101273.30;1754910;80;21473;-71
2021/09/30 15:47:59;;;;;;;23.73;11.38;;;;;;;14.21;50.74;101271.06;1775404;80;21450;-73
2021/09/30 15:50:25;;;;;;;34.67;14.23;;;;;;;14.08;51.49;101269.95;1770997;79;21069;-76
2021/09/30 15:52:52;;;;;;;29.35;14.10;;;;;;;13.95;52.23;101270.48;1741502;81;21283;-74
2021/09/30 15:55:19;;;;;;;34.05;12.10;;;;;;;13.90;52.99;101274.94;1769567;81;21685;-75
2021/09/30 15:57:46;;;;;;;59.20;20.17;;;;;;;13.79;53.88;101269.80;1779628;80;21479;-74
2021/09/30 16:00:14;;;;;;;47.98;17.48;;;;;;;13.64;54.81;101279.39;1743008;81;21005;-74
2021/09/30 16:02:43;;;;;;;35.50;11.22;;;;;;;13.46;55.88;101274.88;1771523;81;20958;-75
2021/09/30 16:05:09;;;;;;;34.25;11.57;;;;;;;13.30;56.61;101275.52;1770877;81;21268;-74
2021/09/30 16:07:35;;;;;;;39.40;12.55;;;;;;;13.16;57.32;101280.28;1770323;81;20947;-76
2021/09/30 16:10:04;;;;;;;31.17;13.38;;;;;;;13.02;58.05;101283.64;1744250;81;21023;-69
2021/09/30 16:12:31;;;;;;;29.10;10.15;;;;;;;12.91;58.90;101286.27;1740209;81;20931;-69
2021/09/30 16:14:57;;;;;;;26.52;10.88;;;;;;;12.81;59.66;101284.63;1771423;81;20994;-70
2021/09/30 16:17:25;;;;;;;36.40;11.65;;;;;;;12.72;60.62;101286.80;1771471;81;20978;-69
2021/09/30 16:19:53;;;;;;;17.80;12.33;;;;;;;12.61;60.91;101286.22;1771264;81;21125;-72
2021/09/30 16:22:22;;;;;;;25.55;14.98;;;;;;;12.50;61.63;101289.12;1771155;81;21037;-72
2021/09/30 16:24:51;;;;;;;39.40;16.57;;;;;;;12.41;62.01;101287.77;1765905;81;20987;-78
2021/09/30 16:27:19;;;;;;;25.35;13.72;;;;;;;12.33;62.43;101286.69;1769414;81;20982;-76
2021/09/30 16:29:45;;;;;;;45.83;14.73;;;;;;;12.24;62.82;101292.06;1734344;81;21244;-80
2021/09/30 16:32:12;;;;;;;28.45;13.25;;;;;;;12.13;63.28;101287.41;1769570;81;21000;-76
2021/09/30 16:34:39;;;;;;;35.48;13.85;;;;;;;12.07;63.75;101291.81;1735741;81;21014;-75
2021/09/30 16:37:07;;;;;;;30.37;13.32;;;;;;;12.03;64.13;101285.21;1737310;82;21059;-74
2021/09/30 16:39:34;;;;;;;37.40;12.45;;;;;;;11.98;64.50;101283.70;1736813;82;21173;-76
2021/09/30 16:42:00;;;;;;;39.65;11.28;;;;;;;11.94;64.74;101285.70;1734070;82;21977;-76
2021/09/30 16:44:26;;;;;;;26.42;10.08;;;;;;;11.89;64.99;101284.19;1697202;82;21035;-86
2021/09/30 16:46:53;;;;;;;29.37;10.90;;;;;;;11.84;64.76;101282.67;1732157;82;21085;-70
2021/09/30 16:49:19;;;;;;;35.52;11.60;;;;;;;11.78;64.43;101287.89;1716134;83;20957;-71
2021/09/30 16:51:48;;;;;;;36.23;15.18;;;;;;;11.75;64.18;101280.22;1706135;84;21021;-71
2021/09/30 16:54:15;;;;;;;25.32;10.80;;;;;;;11.72;63.77;101279.33;1731848;82;21524;-74
2021/09/30 16:56:41;;;;;;;35.80;12.10;;;;;;;11.73;63.98;101284.19;1735860;82;21024;-79
2021/09/30 16:59:10;;;;;;;28.02;10.88;;;;;;;11.69;64.51;101284.30;1703097;83;21034;-82
2021/09/30 17:01:37;;;;;;;33.63;11.43;;;;;;;11.61;64.84;101289.93;1703705;82;21488;-82
2021/09/30 17:04:04;;;;;;;34.23;11.08;;;;;;;11.50;65.01;101290.13;1709784;82;21040;-82